Airfield :
LOGIN :

Register | Disclaimer

   EN    FR    IT 

 










Legend :    VFR   Marginal VFR   IFR   Intensive IFR   Very Intensive IFR
Visi :
Ceiling :
>= 8 km
>= 3000ft
5 to 8 km
1000 to 3000 ft
1500m to 5 km
500 to 1000 ft
800 to 1500m
200 to 500 ft
< 800m
< 200 ft
Symbols :   Thunderstorms  Fog  Heavy snow  Heavy precipitations  Wind > 20 kt
SIGMETs :     Misc.  Thunderstorms  Icing  Turbulence  Mountain Waves  Volcanic Ashes






- Airport Elevation : 699 ft
- IATA code : PAD


EDLP - Paderborn Lippstadt

CURRENT METAR :
  • 021250Z 05008KT 9999 -SN BKN011 OVC014 01/01 Q1022

EXPIRED METARs :
  • 021220Z 05007KT 020V080 9999 -SN BKN011 OVC014 01/01 Q1022
  • 021150Z 06008KT 030V090 9999 -SN OVC013 01/01 Q1022
  • 021120Z 06008KT 9000 -SN OVC013 01/01 Q1023
  • 021050Z 05008KT 9999 OVC014 02/01 Q1023

TAF TAF EDLP
Valid from the 02 at 12:00 until the 03 at 12:00 UTC


021100Z 0212/0312 05008KT 9999 OVC012
TEMPO 0212/0224 2000 -SN BR BKN005
BECMG 0306/0310 BKN015
TEMPO 0311/0312 BKN012



MET'MAP, your aeronautical weather chart ! - Copyright ORBIFLY December 2007 - Disclaimer

ORBIFLY MET'MAP TEAM :

Programming & Development : Alexandra Zaïnal
Original concept : Baudouin d'Aumeries
Technical & hardware support : Manuel Goepfert
Assistance : Marc-Olivier Méhu




SOURCES & CREDITS :

   NOAA